sensor_id;sensor_type;location;lat;lon;timestamp;temperature;humidity
47521;DHT22;32291;52.010;4.446;2022-07-10T00:00:19;14.80;99.90
47521;DHT22;32291;52.010;4.446;2022-07-10T00:01:23;15.00;99.90
47521;DHT22;32291;52.010;4.446;2022-07-10T00:02:25;14.80;99.90
47521;DHT22;32291;52.010;4.446;2022-07-10T00:03:27;14.80;99.90
47521;DHT22;32291;52.010;4.446;2022-07-10T00:04:28;14.70;99.90
47521;DHT22;32291;52.010;4.446;2022-07-10T00:05:32;14.70;99.90
47521;DHT22;32291;52.010;4.446;2022-07-10T00:06:36;14.70;99.90
47521;DHT22;32291;52.010;4.446;2022-07-10T00:07:37;14.80;99.90
47521;DHT22;32291;52.010;4.446;2022-07-10T00:08:39;14.80;99.90
47521;DHT22;32291;52.010;4.446;2022-07-10T00:09:43;14.70;99.90
47521;DHT22;32291;52.010;4.446;2022-07-10T00:10:45;14.70;99.90
47521;DHT22;32291;52.010;4.446;2022-07-10T00:11:47;14.70;99.90
47521;DHT22;32291;52.010;4.446;2022-07-10T00:12:51;14.70;99.90
47521;DHT22;32291;52.010;4.446;2022-07-10T00:13:53;14.70;99.90
47521;DHT22;32291;52.010;4.446;2022-07-10T00:14:56;14.70;99.90
47521;DHT22;32291;52.010;4.446;2022-07-10T00:15:58;14.70;99.90
47521;DHT22;32291;52.010;4.446;2022-07-10T00:17:04;14.70;99.90
47521;DHT22;32291;52.010;4.446;2022-07-10T00:18:06;14.60;99.90
47521;DHT22;32291;52.010;4.446;2022-07-10T00:19:08;14.70;99.90
47521;DHT22;32291;52.010;4.446;2022-07-10T00:20:12;14.70;99.90
47521;DHT22;32291;52.010;4.446;2022-07-10T00:21:15;14.60;99.90
47521;DHT22;32291;52.010;4.446;2022-07-10T00:22:17;14.60;99.90
47521;DHT22;32291;52.010;4.446;2022-07-10T00:23:19;14.60;99.90
47521;DHT22;32291;52.010;4.446;2022-07-10T00:24:21;14.60;99.90
47521;DHT22;32291;52.010;4.446;2022-07-10T00:25:23;14.90;99.90
47521;DHT22;32291;52.010;4.446;2022-07-10T00:26:25;14.60;99.90
47521;DHT22;32291;52.010;4.446;2022-07-10T00:27:27;14.60;99.90
47521;DHT22;32291;52.010;4.446;2022-07-10T00:28:29;14.60;99.90
47521;DHT22;32291;52.010;4.446;2022-07-10T00:29:31;14.60;99.90
47521;DHT22;32291;52.010;4.446;2022-07-10T00:30:33;14.50;99.90
47521;DHT22;32291;52.010;4.446;2022-07-10T00:31:35;14.50;99.90
47521;DHT22;32291;52.010;4.446;2022-07-10T00:32:37;14.60;99.90
47521;DHT22;32291;52.010;4.446;2022-07-10T00:33:39;14.60;99.90
47521;DHT22;32291;52.010;4.446;2022-07-10T00:34:41;14.50;99.90
47521;DHT22;32291;52.010;4.446;2022-07-10T00:35:43;14.60;99.90
47521;DHT22;32291;52.010;4.446;2022-07-10T00:36:45;14.60;99.90
47521;DHT22;32291;52.010;4.446;2022-07-10T00:37:47;14.50;99.90
47521;DHT22;32291;52.010;4.446;2022-07-10T00:38:49;14.50;99.90
47521;DHT22;32291;52.010;4.446;2022-07-10T00:39:50;14.60;99.90
47521;DHT22;32291;52.010;4.446;2022-07-10T00:40:52;14.50;99.90
47521;DHT22;32291;52.010;4.446;2022-07-10T00:41:55;14.50;99.90
47521;DHT22;32291;52.010;4.446;2022-07-10T00:43:11;14.60;99.90
47521;DHT22;32291;52.010;4.446;2022-07-10T00:44:13;14.60;99.90
47521;DHT22;32291;52.010;4.446;2022-07-10T00:45:15;14.50;99.90
47521;DHT22;32291;52.010;4.446;2022-07-10T00:46:17;14.50;99.90
47521;DHT22;32291;52.010;4.446;2022-07-10T00:47:21;14.60;99.90
47521;DHT22;32291;52.010;4.446;2022-07-10T00:48:24;14.50;99.90
47521;DHT22;32291;52.010;4.446;2022-07-10T00:49:25;14.40;99.90
47521;DHT22;32291;52.010;4.446;2022-07-10T00:50:28;14.50;99.90
47521;DHT22;32291;52.010;4.446;2022-07-10T00:51:31;14.80;99.90
47521;DHT22;32291;52.010;4.446;2022-07-10T00:52:35;14.50;99.90
47521;DHT22;32291;52.010;4.446;2022-07-10T00:53:40;14.40;99.90
47521;DHT22;32291;52.010;4.446;2022-07-10T00:54:47;14.50;99.90
47521;DHT22;32291;52.010;4.446;2022-07-10T00:55:52;14.40;99.90
47521;DHT22;32291;52.010;4.446;2022-07-10T00:56:54;14.40;99.90
47521;DHT22;32291;52.010;4.446;2022-07-10T00:57:56;14.40;99.90
47521;DHT22;32291;52.010;4.446;2022-07-10T00:58:58;14.60;99.90
47521;DHT22;32291;52.010;4.446;2022-07-10T01:00:00;14.70;99.90
47521;DHT22;32291;52.010;4.446;2022-07-10T01:01:02;14.40;99.90
47521;DHT22;32291;52.010;4.446;2022-07-10T01:02:05;14.40;99.90
47521;DHT22;32291;52.010;4.446;2022-07-10T01:03:07;14.30;99.90
47521;DHT22;32291;52.010;4.446;2022-07-10T01:04:10;14.30;99.90
47521;DHT22;32291;52.010;4.446;2022-07-10T01:05:12;14.30;99.90
47521;DHT22;32291;52.010;4.446;2022-07-10T01:06:15;14.30;99.90
47521;DHT22;32291;52.010;4.446;2022-07-10T01:07:17;14.30;99.90
47521;DHT22;32291;52.010;4.446;2022-07-10T01:08:19;14.40;99.90
47521;DHT22;32291;52.010;4.446;2022-07-10T01:09:22;14.30;99.90
47521;DHT22;32291;52.010;4.446;2022-07-10T01:10:24;14.30;99.90
47521;DHT22;32291;52.010;4.446;2022-07-10T01:11:26;14.30;99.90
47521;DHT22;32291;52.010;4.446;2022-07-10T01:12:28;14.00;99.90
47521;DHT22;32291;52.010;4.446;2022-07-10T01:13:30;14.20;99.90
47521;DHT22;32291;52.010;4.446;2022-07-10T01:14:34;14.30;99.90
47521;DHT22;32291;52.010;4.446;2022-07-10T01:15:37;14.20;99.90
47521;DHT22;32291;52.010;4.446;2022-07-10T01:16:40;14.20;99.90
47521;DHT22;32291;52.010;4.446;2022-07-10T01:17:43;14.20;99.90
47521;DHT22;32291;52.010;4.446;2022-07-10T01:18:45;14.20;99.90
47521;DHT22;32291;52.010;4.446;2022-07-10T01:19:47;14.20;99.90
47521;DHT22;32291;52.010;4.446;2022-07-10T01:20:53;14.20;99.90
47521;DHT22;32291;52.010;4.446;2022-07-10T01:21:56;14.20;99.90
47521;DHT22;32291;52.010;4.446;2022-07-10T01:23:00;14.60;99.90
47521;DHT22;32291;52.010;4.446;2022-07-10T01:24:07;14.20;99.90
47521;DHT22;32291;52.010;4.446;2022-07-10T01:25:12;14.10;99.90
47521;DHT22;32291;52.010;4.446;2022-07-10T01:26:13;14.20;99.90
47521;DHT22;32291;52.010;4.446;2022-07-10T01:27:15;14.20;99.90
47521;DHT22;32291;52.010;4.446;2022-07-10T01:28:20;14.20;99.90
47521;DHT22;32291;52.010;4.446;2022-07-10T01:29:23;14.10;99.90
47521;DHT22;32291;52.010;4.446;2022-07-10T01:30:26;14.20;99.90
47521;DHT22;32291;52.010;4.446;2022-07-10T01:31:28;14.10;99.90
47521;DHT22;32291;52.010;4.446;2022-07-10T01:32:38;14.10;99.90
47521;DHT22;32291;52.010;4.446;2022-07-10T01:33:41;13.10;99.90
47521;DHT22;32291;52.010;4.446;2022-07-10T01:34:44;14.10;99.90
47521;DHT22;32291;52.010;4.446;2022-07-10T01:35:48;14.10;99.90
47521;DHT22;32291;52.010;4.446;2022-07-10T01:36:50;14.40;99.90
47521;DHT22;32291;52.010;4.446;2022-07-10T01:37:52;14.00;99.90
47521;DHT22;32291;52.010;4.446;2022-07-10T01:38:55;14.10;99.90
47521;DHT22;32291;52.010;4.446;2022-07-10T01:39:58;14.10;99.90
47521;DHT22;32291;52.010;4.446;2022-07-10T01:41:00;14.10;99.90
47521;DHT22;32291;52.010;4.446;2022-07-10T01:42:02;14.10;99.90
47521;DHT22;32291;52.010;4.446;2022-07-10T01:43:04;14.00;99.90
47521;DHT22;32291;52.010;4.446;2022-07-10T01:44:06;14.00;99.90
47521;DHT22;32291;52.010;4.446;2022-07-10T01:45:09;14.00;99.90
47521;DHT22;32291;52.010;4.446;2022-07-10T01:46:12;14.00;99.90
47521;DHT22;32291;52.010;4.446;2022-07-10T01:47:14;14.00;99.90
47521;DHT22;32291;52.010;4.446;2022-07-10T01:48:16;14.00;99.90
47521;DHT22;32291;52.010;4.446;2022-07-10T01:49:18;13.90;99.90
47521;DHT22;32291;52.010;4.446;2022-07-10T01:50:20;14.00;99.90
47521;DHT22;32291;52.010;4.446;2022-07-10T01:51:23;14.00;99.90
47521;DHT22;32291;52.010;4.446;2022-07-10T01:52:26;13.90;99.90
47521;DHT22;32291;52.010;4.446;2022-07-10T01:53:28;14.00;99.90
47521;DHT22;32291;52.010;4.446;2022-07-10T01:54:30;14.00;99.90
47521;DHT22;32291;52.010;4.446;2022-07-10T01:55:32;13.90;99.90
47521;DHT22;32291;52.010;4.446;2022-07-10T01:56:34;14.00;99.90
47521;DHT22;32291;52.010;4.446;2022-07-10T01:57:36;14.00;99.90
47521;DHT22;32291;52.010;4.446;2022-07-10T01:58:39;14.20;99.90
47521;DHT22;32291;52.010;4.446;2022-07-10T01:59:41;14.10;99.90
47521;DHT22;32291;52.010;4.446;2022-07-10T02:00:43;14.00;99.90
47521;DHT22;32291;52.010;4.446;2022-07-10T02:01:46;14.00;99.90
47521;DHT22;32291;52.010;4.446;2022-07-10T02:02:48;14.10;99.90
47521;DHT22;32291;52.010;4.446;2022-07-10T02:04:10;13.90;99.90
47521;DHT22;32291;52.010;4.446;2022-07-10T02:05:31;13.90;99.90
47521;DHT22;32291;52.010;4.446;2022-07-10T02:06:33;13.90;99.90
47521;DHT22;32291;52.010;4.446;2022-07-10T02:07:35;14.20;99.90
47521;DHT22;32291;52.010;4.446;2022-07-10T02:08:37;13.90;99.90
47521;DHT22;32291;52.010;4.446;2022-07-10T02:09:39;13.90;99.90
47521;DHT22;32291;52.010;4.446;2022-07-10T02:10:42;13.90;99.90
47521;DHT22;32291;52.010;4.446;2022-07-10T02:11:46;13.90;99.90
47521;DHT22;32291;52.010;4.446;2022-07-10T02:12:48;13.90;99.90
47521;DHT22;32291;52.010;4.446;2022-07-10T02:13:50;13.90;99.90
47521;DHT22;32291;52.010;4.446;2022-07-10T02:14:52;14.10;99.90
47521;DHT22;32291;52.010;4.446;2022-07-10T02:15:54;13.90;99.90
47521;DHT22;32291;52.010;4.446;2022-07-10T02:16:57;13.90;99.90
47521;DHT22;32291;52.010;4.446;2022-07-10T02:17:59;13.80;99.90
47521;DHT22;32291;52.010;4.446;2022-07-10T02:19:02;13.80;99.90
47521;DHT22;32291;52.010;4.446;2022-07-10T02:20:04;13.90;99.90
47521;DHT22;32291;52.010;4.446;2022-07-10T02:21:07;13.80;99.90
47521;DHT22;32291;52.010;4.446;2022-07-10T02:22:09;13.80;99.90
47521;DHT22;32291;52.010;4.446;2022-07-10T02:23:11;13.80;99.90
47521;DHT22;32291;52.010;4.446;2022-07-10T02:24:14;14.30;99.90
47521;DHT22;32291;52.010;4.446;2022-07-10T02:25:16;14.10;99.90
47521;DHT22;32291;52.010;4.446;2022-07-10T02:26:18;13.80;99.90
47521;DHT22;32291;52.010;4.446;2022-07-10T02:27:20;13.80;99.90
47521;DHT22;32291;52.010;4.446;2022-07-10T02:28:22;14.10;99.90
47521;DHT22;32291;52.010;4.446;2022-07-10T02:29:24;13.80;99.90
47521;DHT22;32291;52.010;4.446;2022-07-10T02:30:26;13.80;99.90
47521;DHT22;32291;52.010;4.446;2022-07-10T02:31:29;13.80;99.90
47521;DHT22;32291;52.010;4.446;2022-07-10T02:32:32;13.80;99.90
47521;DHT22;32291;52.010;4.446;2022-07-10T02:33:33;13.80;99.90
47521;DHT22;32291;52.010;4.446;2022-07-10T02:34:35;13.80;99.90
47521;DHT22;32291;52.010;4.446;2022-07-10T02:35:37;14.20;99.90
47521;DHT22;32291;52.010;4.446;2022-07-10T02:36:39;13.80;99.90
47521;DHT22;32291;52.010;4.446;2022-07-10T02:37:42;13.80;99.90
47521;DHT22;32291;52.010;4.446;2022-07-10T02:38:44;12.80;99.90
47521;DHT22;32291;52.010;4.446;2022-07-10T02:39:46;13.80;99.90
47521;DHT22;32291;52.010;4.446;2022-07-10T02:40:48;14.20;99.90
47521;DHT22;32291;52.010;4.446;2022-07-10T02:41:49;13.70;99.90
47521;DHT22;32291;52.010;4.446;2022-07-10T02:42:52;13.70;99.90
47521;DHT22;32291;52.010;4.446;2022-07-10T02:43:54;14.20;99.90
47521;DHT22;32291;52.010;4.446;2022-07-10T02:44:56;13.70;99.90
47521;DHT22;32291;52.010;4.446;2022-07-10T02:45:58;13.80;99.90
47521;DHT22;32291;52.010;4.446;2022-07-10T02:47:00;13.70;99.90
47521;DHT22;32291;52.010;4.446;2022-07-10T02:48:03;13.80;99.90
47521;DHT22;32291;52.010;4.446;2022-07-10T02:49:05;13.70;99.90
47521;DHT22;32291;52.010;4.446;2022-07-10T02:50:08;13.80;99.90
47521;DHT22;32291;52.010;4.446;2022-07-10T02:51:10;13.80;99.90
47521;DHT22;32291;52.010;4.446;2022-07-10T02:52:12;13.70;99.90
47521;DHT22;32291;52.010;4.446;2022-07-10T02:53:14;13.70;99.90
47521;DHT22;32291;52.010;4.446;2022-07-10T02:54:16;13.70;99.90
47521;DHT22;32291;52.010;4.446;2022-07-10T02:55:18;13.70;99.90
47521;DHT22;32291;52.010;4.446;2022-07-10T02:56:20;13.70;99.90
47521;DHT22;32291;52.010;4.446;2022-07-10T02:57:22;13.70;99.90
47521;DHT22;32291;52.010;4.446;2022-07-10T02:58:24;13.70;99.90
47521;DHT22;32291;52.010;4.446;2022-07-10T02:59:26;13.70;99.90
47521;DHT22;32291;52.010;4.446;2022-07-10T03:00:29;13.70;99.90
47521;DHT22;32291;52.010;4.446;2022-07-10T03:01:32;13.70;99.90
47521;DHT22;32291;52.010;4.446;2022-07-10T03:02:33;13.70;99.90
47521;DHT22;32291;52.010;4.446;2022-07-10T03:03:35;13.70;99.90
47521;DHT22;32291;52.010;4.446;2022-07-10T03:04:37;13.80;99.90
47521;DHT22;32291;52.010;4.446;2022-07-10T03:05:40;13.70;99.90
47521;DHT22;32291;52.010;4.446;2022-07-10T03:06:42;13.70;99.90
47521;DHT22;32291;52.010;4.446;2022-07-10T03:07:44;13.70;99.90
47521;DHT22;32291;52.010;4.446;2022-07-10T03:08:46;13.80;99.90
47521;DHT22;32291;52.010;4.446;2022-07-10T03:09:47;13.80;99.90
47521;DHT22;32291;52.010;4.446;2022-07-10T03:10:49;13.80;99.90
47521;DHT22;32291;52.010;4.446;2022-07-10T03:11:52;13.70;99.90
47521;DHT22;32291;52.010;4.446;2022-07-10T03:12:54;13.80;99.90
47521;DHT22;32291;52.010;4.446;2022-07-10T03:13:56;13.80;99.90
47521;DHT22;32291;52.010;4.446;2022-07-10T03:14:58;13.80;99.90
47521;DHT22;32291;52.010;4.446;2022-07-10T03:16:00;13.90;99.90
47521;DHT22;32291;52.010;4.446;2022-07-10T03:17:05;13.80;99.90
47521;DHT22;32291;52.010;4.446;2022-07-10T03:18:07;13.80;99.90
47521;DHT22;32291;52.010;4.446;2022-07-10T03:19:09;13.80;99.90
47521;DHT22;32291;52.010;4.446;2022-07-10T03:20:11;13.80;99.90
47521;DHT22;32291;52.010;4.446;2022-07-10T03:21:14;13.80;99.90
47521;DHT22;32291;52.010;4.446;2022-07-10T03:22:15;13.80;99.90
47521;DHT22;32291;52.010;4.446;2022-07-10T03:23:17;13.80;99.90
47521;DHT22;32291;52.010;4.446;2022-07-10T03:24:21;13.80;99.90
47521;DHT22;32291;52.010;4.446;2022-07-10T03:25:23;13.80;99.90
47521;DHT22;32291;52.010;4.446;2022-07-10T03:26:25;13.80;99.90
47521;DHT22;32291;52.010;4.446;2022-07-10T03:27:28;13.90;99.90
47521;DHT22;32291;52.010;4.446;2022-07-10T03:28:30;14.10;99.90
47521;DHT22;32291;52.010;4.446;2022-07-10T03:29:32;14.00;99.90
47521;DHT22;32291;52.010;4.446;2022-07-10T03:30:35;13.90;99.90
47521;DHT22;32291;52.010;4.446;2022-07-10T03:31:36;13.90;99.90
47521;DHT22;32291;52.010;4.446;2022-07-10T03:32:38;13.90;99.90
47521;DHT22;32291;52.010;4.446;2022-07-10T03:33:40;14.40;99.90
47521;DHT22;32291;52.010;4.446;2022-07-10T03:34:42;13.90;99.90
47521;DHT22;32291;52.010;4.446;2022-07-10T03:35:44;13.90;99.90
47521;DHT22;32291;52.010;4.446;2022-07-10T03:36:46;14.40;99.90
47521;DHT22;32291;52.010;4.446;2022-07-10T03:37:48;13.90;99.90
47521;DHT22;32291;52.010;4.446;2022-07-10T03:38:50;13.90;99.90
47521;DHT22;32291;52.010;4.446;2022-07-10T03:39:52;13.90;99.90
47521;DHT22;32291;52.010;4.446;2022-07-10T03:40:54;13.60;99.90
47521;DHT22;32291;52.010;4.446;2022-07-10T03:41:56;14.00;99.90
47521;DHT22;32291;52.010;4.446;2022-07-10T03:42:58;14.00;99.90
47521;DHT22;32291;52.010;4.446;2022-07-10T03:44:00;14.00;99.90
47521;DHT22;32291;52.010;4.446;2022-07-10T03:45:02;14.60;99.90
47521;DHT22;32291;52.010;4.446;2022-07-10T03:46:05;14.00;99.90
47521;DHT22;32291;52.010;4.446;2022-07-10T03:47:07;14.10;99.90
47521;DHT22;32291;52.010;4.446;2022-07-10T03:48:09;14.10;99.90
47521;DHT22;32291;52.010;4.446;2022-07-10T03:49:11;14.50;99.90
47521;DHT22;32291;52.010;4.446;2022-07-10T03:50:13;14.20;99.90
47521;DHT22;32291;52.010;4.446;2022-07-10T03:51:15;14.20;99.90
47521;DHT22;32291;52.010;4.446;2022-07-10T03:52:17;14.20;99.90
47521;DHT22;32291;52.010;4.446;2022-07-10T03:53:19;14.60;99.90
47521;DHT22;32291;52.010;4.446;2022-07-10T03:54:21;14.20;99.90
47521;DHT22;32291;52.010;4.446;2022-07-10T03:55:23;14.20;99.90
47521;DHT22;32291;52.010;4.446;2022-07-10T03:56:34;14.30;99.90
47521;DHT22;32291;52.010;4.446;2022-07-10T03:57:55;14.30;99.90
47521;DHT22;32291;52.010;4.446;2022-07-10T03:58:57;14.40;99.90
47521;DHT22;32291;52.010;4.446;2022-07-10T03:59:59;14.40;99.90
47521;DHT22;32291;52.010;4.446;2022-07-10T04:01:01;14.40;99.90
47521;DHT22;32291;52.010;4.446;2022-07-10T04:02:04;14.40;99.90
47521;DHT22;32291;52.010;4.446;2022-07-10T04:03:06;14.40;99.90
47521;DHT22;32291;52.010;4.446;2022-07-10T04:04:09;14.50;99.90
47521;DHT22;32291;52.010;4.446;2022-07-10T04:05:11;14.50;99.90
47521;DHT22;32291;52.010;4.446;2022-07-10T04:06:13;14.50;99.90
47521;DHT22;32291;52.010;4.446;2022-07-10T04:07:15;14.50;99.90
47521;DHT22;32291;52.010;4.446;2022-07-10T04:08:18;14.50;99.90
47521;DHT22;32291;52.010;4.446;2022-07-10T04:09:20;14.60;99.90
47521;DHT22;32291;52.010;4.446;2022-07-10T04:10:23;15.00;99.90
47521;DHT22;32291;52.010;4.446;2022-07-10T04:11:27;14.60;99.90
47521;DHT22;32291;52.010;4.446;2022-07-10T04:12:29;15.10;99.90
47521;DHT22;32291;52.010;4.446;2022-07-10T04:13:31;14.60;99.90
47521;DHT22;32291;52.010;4.446;2022-07-10T04:14:33;14.60;99.90
47521;DHT22;32291;52.010;4.446;2022-07-10T04:15:35;14.70;99.90
47521;DHT22;32291;52.010;4.446;2022-07-10T04:16:37;14.70;99.90
47521;DHT22;32291;52.010;4.446;2022-07-10T04:17:39;14.70;99.90
47521;DHT22;32291;52.010;4.446;2022-07-10T04:18:42;14.80;99.90
47521;DHT22;32291;52.010;4.446;2022-07-10T04:19:44;14.70;99.90
47521;DHT22;32291;52.010;4.446;2022-07-10T04:20:46;14.70;99.90
47521;DHT22;32291;52.010;4.446;2022-07-10T04:21:47;14.80;99.90
47521;DHT22;32291;52.010;4.446;2022-07-10T04:22:50;14.80;99.90
47521;DHT22;32291;52.010;4.446;2022-07-10T04:23:52;14.80;99.90
47521;DHT22;32291;52.010;4.446;2022-07-10T04:24:55;14.80;99.90
47521;DHT22;32291;52.010;4.446;2022-07-10T04:25:56;14.80;99.90
47521;DHT22;32291;52.010;4.446;2022-07-10T04:26:58;14.80;99.90
47521;DHT22;32291;52.010;4.446;2022-07-10T04:28:03;14.80;99.90
47521;DHT22;32291;52.010;4.446;2022-07-10T04:29:05;14.80;99.90
47521;DHT22;32291;52.010;4.446;2022-07-10T04:30:07;15.20;99.90
47521;DHT22;32291;52.010;4.446;2022-07-10T04:31:10;14.90;99.90
47521;DHT22;32291;52.010;4.446;2022-07-10T04:32:11;14.90;99.90
47521;DHT22;32291;52.010;4.446;2022-07-10T04:33:14;14.90;99.90
47521;DHT22;32291;52.010;4.446;2022-07-10T04:34:16;14.90;99.90
47521;DHT22;32291;52.010;4.446;2022-07-10T04:35:18;14.90;99.90
47521;DHT22;32291;52.010;4.446;2022-07-10T04:36:20;15.00;99.90
47521;DHT22;32291;52.010;4.446;2022-07-10T04:37:22;15.00;99.90
47521;DHT22;32291;52.010;4.446;2022-07-10T04:38:24;15.00;99.90
47521;DHT22;32291;52.010;4.446;2022-07-10T04:39:27;15.00;99.90
47521;DHT22;32291;52.010;4.446;2022-07-10T04:40:29;15.00;99.90
47521;DHT22;32291;52.010;4.446;2022-07-10T04:41:31;15.10;99.90
47521;DHT22;32291;52.010;4.446;2022-07-10T04:42:32;15.10;99.90
47521;DHT22;32291;52.010;4.446;2022-07-10T04:43:34;15.10;99.90
47521;DHT22;32291;52.010;4.446;2022-07-10T04:44:36;15.10;99.90
47521;DHT22;32291;52.010;4.446;2022-07-10T04:45:39;15.10;99.90
47521;DHT22;32291;52.010;4.446;2022-07-10T04:46:41;15.10;99.90
47521;DHT22;32291;52.010;4.446;2022-07-10T04:47:43;15.20;99.90
47521;DHT22;32291;52.010;4.446;2022-07-10T04:48:45;15.20;99.90
47521;DHT22;32291;52.010;4.446;2022-07-10T04:49:46;15.70;99.90
47521;DHT22;32291;52.010;4.446;2022-07-10T04:50:49;15.20;99.90
47521;DHT22;32291;52.010;4.446;2022-07-10T04:51:51;15.30;99.90
47521;DHT22;32291;52.010;4.446;2022-07-10T04:52:53;15.30;99.90
47521;DHT22;32291;52.010;4.446;2022-07-10T04:53:55;15.30;99.90
47521;DHT22;32291;52.010;4.446;2022-07-10T04:54:57;15.30;99.90
47521;DHT22;32291;52.010;4.446;2022-07-10T04:55:59;15.50;99.90
47521;DHT22;32291;52.010;4.446;2022-07-10T04:57:02;15.30;99.90
47521;DHT22;32291;52.010;4.446;2022-07-10T04:58:04;15.40;99.90
47521;DHT22;32291;52.010;4.446;2022-07-10T04:59:06;15.40;99.90
47521;DHT22;32291;52.010;4.446;2022-07-10T05:00:09;15.50;99.90
47521;DHT22;32291;52.010;4.446;2022-07-10T05:01:12;15.40;99.90
47521;DHT22;32291;52.010;4.446;2022-07-10T05:02:14;15.50;99.90
47521;DHT22;32291;52.010;4.446;2022-07-10T05:03:16;15.50;99.90
47521;DHT22;32291;52.010;4.446;2022-07-10T05:04:18;15.60;99.90
47521;DHT22;32291;52.010;4.446;2022-07-10T05:05:20;15.80;99.90
47521;DHT22;32291;52.010;4.446;2022-07-10T05:06:22;15.60;99.90
47521;DHT22;32291;52.010;4.446;2022-07-10T05:07:24;15.70;99.90
47521;DHT22;32291;52.010;4.446;2022-07-10T05:08:27;15.70;99.90
47521;DHT22;32291;52.010;4.446;2022-07-10T05:09:29;15.70;99.90
47521;DHT22;32291;52.010;4.446;2022-07-10T05:10:31;15.90;99.90
47521;DHT22;32291;52.010;4.446;2022-07-10T05:11:33;15.70;99.90
47521;DHT22;32291;52.010;4.446;2022-07-10T05:12:35;15.80;99.90
47521;DHT22;32291;52.010;4.446;2022-07-10T05:13:37;15.80;99.90
47521;DHT22;32291;52.010;4.446;2022-07-10T05:14:39;15.80;99.90
47521;DHT22;32291;52.010;4.446;2022-07-10T05:15:41;15.90;99.90
47521;DHT22;32291;52.010;4.446;2022-07-10T05:16:43;15.90;99.90
47521;DHT22;32291;52.010;4.446;2022-07-10T05:17:45;15.90;99.90
47521;DHT22;32291;52.010;4.446;2022-07-10T05:18:47;15.90;99.90
47521;DHT22;32291;52.010;4.446;2022-07-10T05:19:50;16.40;99.90
47521;DHT22;32291;52.010;4.446;2022-07-10T05:20:53;15.90;99.90
47521;DHT22;32291;52.010;4.446;2022-07-10T05:21:55;16.00;99.90
47521;DHT22;32291;52.010;4.446;2022-07-10T05:22:57;16.00;99.90
47521;DHT22;32291;52.010;4.446;2022-07-10T05:23:59;16.00;99.90
47521;DHT22;32291;52.010;4.446;2022-07-10T05:25:01;16.00;99.90
47521;DHT22;32291;52.010;4.446;2022-07-10T05:26:04;16.00;99.90
47521;DHT22;32291;52.010;4.446;2022-07-10T05:27:07;16.00;99.90
47521;DHT22;32291;52.010;4.446;2022-07-10T05:28:09;16.00;99.90
47521;DHT22;32291;52.010;4.446;2022-07-10T05:29:12;16.10;99.90
47521;DHT22;32291;52.010;4.446;2022-07-10T05:30:14;16.10;99.90
47521;DHT22;32291;52.010;4.446;2022-07-10T05:31:16;16.10;99.90
47521;DHT22;32291;52.010;4.446;2022-07-10T05:32:18;16.10;99.90
47521;DHT22;32291;52.010;4.446;2022-07-10T05:33:20;16.20;99.90
47521;DHT22;32291;52.010;4.446;2022-07-10T05:34:22;16.20;99.90
47521;DHT22;32291;52.010;4.446;2022-07-10T05:35:24;16.30;99.90
47521;DHT22;32291;52.010;4.446;2022-07-10T05:36:27;16.30;99.90
47521;DHT22;32291;52.010;4.446;2022-07-10T05:37:29;16.30;99.90
47521;DHT22;32291;52.010;4.446;2022-07-10T05:38:31;16.60;99.90
47521;DHT22;32291;52.010;4.446;2022-07-10T05:39:33;16.40;99.90
47521;DHT22;32291;52.010;4.446;2022-07-10T05:40:36;16.40;99.90
47521;DHT22;32291;52.010;4.446;2022-07-10T05:41:38;16.40;99.90
47521;DHT22;32291;52.010;4.446;2022-07-10T05:42:40;16.40;99.90
47521;DHT22;32291;52.010;4.446;2022-07-10T05:43:45;16.60;99.90
47521;DHT22;32291;52.010;4.446;2022-07-10T05:44:47;16.50;99.90
47521;DHT22;32291;52.010;4.446;2022-07-10T05:45:49;16.50;99.90
47521;DHT22;32291;52.010;4.446;2022-07-10T05:46:51;16.60;99.90
47521;DHT22;32291;52.010;4.446;2022-07-10T05:47:53;16.60;99.90
47521;DHT22;32291;52.010;4.446;2022-07-10T05:48:55;16.60;99.90
47521;DHT22;32291;52.010;4.446;2022-07-10T05:49:57;16.60;99.90
47521;DHT22;32291;52.010;4.446;2022-07-10T05:50:59;16.60;99.90
47521;DHT22;32291;52.010;4.446;2022-07-10T05:52:04;16.60;99.90
47521;DHT22;32291;52.010;4.446;2022-07-10T05:53:07;16.60;99.90
47521;DHT22;32291;52.010;4.446;2022-07-10T05:54:09;16.60;99.90
47521;DHT22;32291;52.010;4.446;2022-07-10T05:55:11;16.70;99.90
47521;DHT22;32291;52.010;4.446;2022-07-10T05:56:12;16.70;99.90
47521;DHT22;32291;52.010;4.446;2022-07-10T05:57:15;16.80;99.90
47521;DHT22;32291;52.010;4.446;2022-07-10T05:58:17;16.80;99.90
47521;DHT22;32291;52.010;4.446;2022-07-10T05:59:19;16.70;99.90
47521;DHT22;32291;52.010;4.446;2022-07-10T06:00:21;16.80;99.90
47521;DHT22;32291;52.010;4.446;2022-07-10T06:01:24;16.80;99.90
47521;DHT22;32291;52.010;4.446;2022-07-10T06:02:27;16.80;99.90
47521;DHT22;32291;52.010;4.446;2022-07-10T06:03:29;16.90;99.90
47521;DHT22;32291;52.010;4.446;2022-07-10T06:04:31;16.00;99.90
47521;DHT22;32291;52.010;4.446;2022-07-10T06:05:33;16.90;99.90
47521;DHT22;32291;52.010;4.446;2022-07-10T06:06:34;16.90;99.90
47521;DHT22;32291;52.010;4.446;2022-07-10T06:07:36;16.90;99.90
47521;DHT22;32291;52.010;4.446;2022-07-10T06:08:38;17.00;99.90
47521;DHT22;32291;52.010;4.446;2022-07-10T06:09:41;17.00;99.90
47521;DHT22;32291;52.010;4.446;2022-07-10T06:10:44;17.00;99.90
47521;DHT22;32291;52.010;4.446;2022-07-10T06:11:46;17.00;99.90
47521;DHT22;32291;52.010;4.446;2022-07-10T06:12:49;17.00;99.90
47521;DHT22;32291;52.010;4.446;2022-07-10T06:13:51;17.10;99.90
47521;DHT22;32291;52.010;4.446;2022-07-10T06:14:53;17.00;99.90
47521;DHT22;32291;52.010;4.446;2022-07-10T06:15:55;17.00;99.90
47521;DHT22;32291;52.010;4.446;2022-07-10T06:16:57;17.10;99.90
47521;DHT22;32291;52.010;4.446;2022-07-10T06:17:59;17.50;99.90
47521;DHT22;32291;52.010;4.446;2022-07-10T06:19:01;17.10;99.90
47521;DHT22;32291;52.010;4.446;2022-07-10T06:20:03;17.10;99.90
47521;DHT22;32291;52.010;4.446;2022-07-10T06:21:06;17.20;99.90
47521;DHT22;32291;52.010;4.446;2022-07-10T06:22:09;17.20;99.90
47521;DHT22;32291;52.010;4.446;2022-07-10T06:23:30;17.20;99.90
47521;DHT22;32291;52.010;4.446;2022-07-10T06:24:32;17.20;99.90
47521;DHT22;32291;52.010;4.446;2022-07-10T06:25:33;17.20;99.90
47521;DHT22;32291;52.010;4.446;2022-07-10T06:26:35;17.30;99.90
47521;DHT22;32291;52.010;4.446;2022-07-10T06:27:38;17.30;99.90
47521;DHT22;32291;52.010;4.446;2022-07-10T06:28:40;17.40;99.90
47521;DHT22;32291;52.010;4.446;2022-07-10T06:29:43;17.40;99.90
47521;DHT22;32291;52.010;4.446;2022-07-10T06:30:45;17.40;99.90
47521;DHT22;32291;52.010;4.446;2022-07-10T06:31:48;17.40;99.90
47521;DHT22;32291;52.010;4.446;2022-07-10T06:32:51;17.40;99.90
47521;DHT22;32291;52.010;4.446;2022-07-10T06:33:52;17.40;99.90
47521;DHT22;32291;52.010;4.446;2022-07-10T06:34:55;17.60;99.90